sensor_id;sensor_type;location;lat;lon;timestamp;P1;durP1;ratioP1;P2;durP2;ratioP2
15230;SDS011;32569;51.762;8.564;2023-07-20T00:01:26;8.87;;;7.70;;
15230;SDS011;32569;51.762;8.564;2023-07-20T00:03:53;8.33;;;7.63;;
15230;SDS011;32569;51.762;8.564;2023-07-20T00:06:20;8.40;;;7.50;;
15230;SDS011;32569;51.762;8.564;2023-07-20T00:08:48;8.63;;;7.83;;
15230;SDS011;32569;51.762;8.564;2023-07-20T00:11:17;8.60;;;7.50;;
15230;SDS011;32569;51.762;8.564;2023-07-20T00:13:43;9.73;;;8.83;;
15230;SDS011;32569;51.762;8.564;2023-07-20T00:16:10;8.87;;;8.07;;
15230;SDS011;32569;51.762;8.564;2023-07-20T00:18:37;9.33;;;8.40;;
15230;SDS011;32569;51.762;8.564;2023-07-20T00:21:03;9.03;;;8.00;;
15230;SDS011;32569;51.762;8.564;2023-07-20T00:23:30;8.40;;;7.60;;
15230;SDS011;32569;51.762;8.564;2023-07-20T00:25:57;8.13;;;7.53;;
15230;SDS011;32569;51.762;8.564;2023-07-20T00:28:25;8.27;;;7.37;;
15230;SDS011;32569;51.762;8.564;2023-07-20T00:30:52;8.13;;;7.40;;
15230;SDS011;32569;51.762;8.564;2023-07-20T00:33:18;7.43;;;6.73;;
15230;SDS011;32569;51.762;8.564;2023-07-20T00:35:45;6.53;;;5.93;;
15230;SDS011;32569;51.762;8.564;2023-07-20T00:38:12;7.17;;;6.47;;
15230;SDS011;32569;51.762;8.564;2023-07-20T00:40:39;6.77;;;6.07;;
15230;SDS011;32569;51.762;8.564;2023-07-20T00:43:07;6.73;;;6.10;;
15230;SDS011;32569;51.762;8.564;2023-07-20T00:45:35;9.07;;;6.40;;
15230;SDS011;32569;51.762;8.564;2023-07-20T00:48:03;6.57;;;5.80;;
15230;SDS011;32569;51.762;8.564;2023-07-20T00:50:32;6.60;;;6.00;;
15230;SDS011;32569;51.762;8.564;2023-07-20T00:53:00;6.80;;;6.20;;
15230;SDS011;32569;51.762;8.564;2023-07-20T00:55:30;6.80;;;6.30;;
15230;SDS011;32569;51.762;8.564;2023-07-20T00:57:57;7.20;;;6.60;;
15230;SDS011;32569;51.762;8.564;2023-07-20T01:00:25;6.90;;;6.20;;
15230;SDS011;32569;51.762;8.564;2023-07-20T01:02:53;7.23;;;6.53;;
15230;SDS011;32569;51.762;8.564;2023-07-20T01:05:20;6.90;;;6.30;;
15230;SDS011;32569;51.762;8.564;2023-07-20T01:07:52;7.63;;;6.93;;
15230;SDS011;32569;51.762;8.564;2023-07-20T01:10:23;8.60;;;7.23;;
15230;SDS011;32569;51.762;8.564;2023-07-20T01:12:55;7.97;;;7.07;;
15230;SDS011;32569;51.762;8.564;2023-07-20T01:15:22;8.00;;;7.20;;
15230;SDS011;32569;51.762;8.564;2023-07-20T01:17:49;8.40;;;7.30;;
15230;SDS011;32569;51.762;8.564;2023-07-20T01:20:18;7.83;;;7.13;;
15230;SDS011;32569;51.762;8.564;2023-07-20T01:25:53;8.27;;;7.57;;
15230;SDS011;32569;51.762;8.564;2023-07-20T01:28:44;7.33;;;6.73;;
15230;SDS011;32569;51.762;8.564;2023-07-20T01:31:25;8.80;;;8.00;;
15230;SDS011;32569;51.762;8.564;2023-07-20T01:33:54;9.27;;;8.00;;
15230;SDS011;32569;51.762;8.564;2023-07-20T01:36:24;9.87;;;8.87;;
15230;SDS011;32569;51.762;8.564;2023-07-20T01:38:52;9.57;;;8.73;;
15230;SDS011;32569;51.762;8.564;2023-07-20T01:41:20;10.23;;;9.33;;
15230;SDS011;32569;51.762;8.564;2023-07-20T01:43:47;9.00;;;8.10;;
15230;SDS011;32569;51.762;8.564;2023-07-20T01:46:14;9.37;;;8.50;;
15230;SDS011;32569;51.762;8.564;2023-07-20T01:48:42;9.97;;;9.00;;
15230;SDS011;32569;51.762;8.564;2023-07-20T01:51:09;9.63;;;8.83;;
15230;SDS011;32569;51.762;8.564;2023-07-20T01:53:37;9.53;;;8.73;;
15230;SDS011;32569;51.762;8.564;2023-07-20T01:56:03;9.20;;;8.30;;
15230;SDS011;32569;51.762;8.564;2023-07-20T01:58:30;9.37;;;8.57;;
15230;SDS011;32569;51.762;8.564;2023-07-20T02:00:57;9.30;;;8.50;;
15230;SDS011;32569;51.762;8.564;2023-07-20T02:03:23;9.43;;;8.63;;
15230;SDS011;32569;51.762;8.564;2023-07-20T02:05:53;9.40;;;8.53;;
15230;SDS011;32569;51.762;8.564;2023-07-20T02:08:19;9.60;;;8.70;;
15230;SDS011;32569;51.762;8.564;2023-07-20T02:10:46;9.73;;;8.70;;
15230;SDS011;32569;51.762;8.564;2023-07-20T02:13:13;9.30;;;8.57;;
15230;SDS011;32569;51.762;8.564;2023-07-20T02:15:40;9.87;;;8.87;;
15230;SDS011;32569;51.762;8.564;2023-07-20T02:18:07;10.13;;;9.20;;
15230;SDS011;32569;51.762;8.564;2023-07-20T02:20:34;9.40;;;8.53;;
15230;SDS011;32569;51.762;8.564;2023-07-20T02:23:02;10.97;;;9.83;;
15230;SDS011;32569;51.762;8.564;2023-07-20T02:25:29;10.23;;;9.43;;
15230;SDS011;32569;51.762;8.564;2023-07-20T02:27:55;10.00;;;9.10;;
15230;SDS011;32569;51.762;8.564;2023-07-20T02:30:23;9.90;;;9.10;;
15230;SDS011;32569;51.762;8.564;2023-07-20T02:32:49;10.07;;;9.17;;
15230;SDS011;32569;51.762;8.564;2023-07-20T02:35:16;10.07;;;9.10;;
15230;SDS011;32569;51.762;8.564;2023-07-20T02:37:43;10.83;;;9.93;;
15230;SDS011;32569;51.762;8.564;2023-07-20T02:40:11;11.33;;;10.23;;
15230;SDS011;32569;51.762;8.564;2023-07-20T02:42:38;10.77;;;9.87;;
15230;SDS011;32569;51.762;8.564;2023-07-20T02:45:05;11.00;;;10.07;;
15230;SDS011;32569;51.762;8.564;2023-07-20T02:47:33;11.10;;;10.00;;
15230;SDS011;32569;51.762;8.564;2023-07-20T02:49:59;10.53;;;9.60;;
15230;SDS011;32569;51.762;8.564;2023-07-20T02:52:26;11.40;;;10.40;;
15230;SDS011;32569;51.762;8.564;2023-07-20T02:54:54;10.83;;;9.93;;
15230;SDS011;32569;51.762;8.564;2023-07-20T02:57:22;10.70;;;9.70;;
15230;SDS011;32569;51.762;8.564;2023-07-20T02:59:49;10.87;;;9.97;;
15230;SDS011;32569;51.762;8.564;2023-07-20T03:02:15;11.37;;;10.33;;
15230;SDS011;32569;51.762;8.564;2023-07-20T03:04:42;11.87;;;10.63;;
15230;SDS011;32569;51.762;8.564;2023-07-20T03:07:09;11.90;;;10.90;;
15230;SDS011;32569;51.762;8.564;2023-07-20T03:09:36;11.87;;;10.67;;
15230;SDS011;32569;51.762;8.564;2023-07-20T03:12:03;11.10;;;10.00;;
15230;SDS011;32569;51.762;8.564;2023-07-20T03:14:31;12.23;;;11.17;;
15230;SDS011;32569;51.762;8.564;2023-07-20T03:16:58;15.03;;;10.37;;
15230;SDS011;32569;51.762;8.564;2023-07-20T03:19:25;11.83;;;10.50;;
15230;SDS011;32569;51.762;8.564;2023-07-20T03:21:53;12.77;;;11.67;;
15230;SDS011;32569;51.762;8.564;2023-07-20T03:24:19;12.40;;;11.23;;
15230;SDS011;32569;51.762;8.564;2023-07-20T03:26:46;13.13;;;11.97;;
15230;SDS011;32569;51.762;8.564;2023-07-20T03:29:13;12.93;;;11.70;;
15230;SDS011;32569;51.762;8.564;2023-07-20T03:31:42;13.63;;;12.30;;
15230;SDS011;32569;51.762;8.564;2023-07-20T03:34:09;14.07;;;12.77;;
15230;SDS011;32569;51.762;8.564;2023-07-20T03:36:35;14.73;;;13.07;;
15230;SDS011;32569;51.762;8.564;2023-07-20T03:39:02;15.77;;;14.07;;
15230;SDS011;32569;51.762;8.564;2023-07-20T03:41:29;15.67;;;14.27;;
15230;SDS011;32569;51.762;8.564;2023-07-20T03:43:56;18.43;;;14.80;;
15230;SDS011;32569;51.762;8.564;2023-07-20T03:46:22;15.93;;;14.33;;
15230;SDS011;32569;51.762;8.564;2023-07-20T03:48:50;17.20;;;15.50;;
15230;SDS011;32569;51.762;8.564;2023-07-20T03:51:17;18.67;;;16.67;;
15230;SDS011;32569;51.762;8.564;2023-07-20T03:53:44;19.30;;;17.33;;
15230;SDS011;32569;51.762;8.564;2023-07-20T03:56:10;20.97;;;18.77;;
15230;SDS011;32569;51.762;8.564;2023-07-20T03:58:37;22.50;;;20.43;;
15230;SDS011;32569;51.762;8.564;2023-07-20T04:01:04;21.80;;;19.60;;
15230;SDS011;32569;51.762;8.564;2023-07-20T04:03:30;20.20;;;18.30;;
15230;SDS011;32569;51.762;8.564;2023-07-20T04:05:58;19.23;;;17.43;;
15230;SDS011;32569;51.762;8.564;2023-07-20T04:08:25;19.90;;;17.83;;
15230;SDS011;32569;51.762;8.564;2023-07-20T04:10:52;19.23;;;17.50;;
15230;SDS011;32569;51.762;8.564;2023-07-20T04:13:19;18.13;;;16.33;;
15230;SDS011;32569;51.762;8.564;2023-07-20T04:15:46;17.40;;;15.67;;
15230;SDS011;32569;51.762;8.564;2023-07-20T04:18:15;17.00;;;15.40;;
15230;SDS011;32569;51.762;8.564;2023-07-20T04:20:42;17.87;;;16.17;;
15230;SDS011;32569;51.762;8.564;2023-07-20T04:23:10;17.60;;;15.97;;
15230;SDS011;32569;51.762;8.564;2023-07-20T04:25:45;17.37;;;15.67;;
15230;SDS011;32569;51.762;8.564;2023-07-20T04:28:12;16.57;;;14.87;;
15230;SDS011;32569;51.762;8.564;2023-07-20T04:30:38;16.97;;;14.43;;
15230;SDS011;32569;51.762;8.564;2023-07-20T04:33:05;15.43;;;14.03;;
15230;SDS011;32569;51.762;8.564;2023-07-20T04:35:49;16.40;;;14.70;;
15230;SDS011;32569;51.762;8.564;2023-07-20T04:38:18;16.43;;;14.83;;
15230;SDS011;32569;51.762;8.564;2023-07-20T04:40:47;17.13;;;14.77;;
15230;SDS011;32569;51.762;8.564;2023-07-20T04:43:15;16.77;;;15.07;;
15230;SDS011;32569;51.762;8.564;2023-07-20T04:45:43;15.07;;;13.67;;
15230;SDS011;32569;51.762;8.564;2023-07-20T04:48:10;15.50;;;13.90;;
15230;SDS011;32569;51.762;8.564;2023-07-20T04:50:39;14.13;;;12.57;;
15230;SDS011;32569;51.762;8.564;2023-07-20T04:53:08;14.30;;;12.90;;
15230;SDS011;32569;51.762;8.564;2023-07-20T04:55:36;13.73;;;12.53;;
15230;SDS011;32569;51.762;8.564;2023-07-20T04:58:03;14.63;;;12.97;;
15230;SDS011;32569;51.762;8.564;2023-07-20T05:00:31;12.47;;;11.27;;
15230;SDS011;32569;51.762;8.564;2023-07-20T05:02:58;12.90;;;11.63;;
15230;SDS011;32569;51.762;8.564;2023-07-20T05:05:25;12.00;;;10.77;;
15230;SDS011;32569;51.762;8.564;2023-07-20T05:07:51;11.20;;;10.13;;
15230;SDS011;32569;51.762;8.564;2023-07-20T05:10:18;12.37;;;11.20;;
15230;SDS011;32569;51.762;8.564;2023-07-20T05:12:46;12.37;;;11.17;;
15230;SDS011;32569;51.762;8.564;2023-07-20T05:15:13;13.27;;;12.00;;
15230;SDS011;32569;51.762;8.564;2023-07-20T05:17:40;13.67;;;12.43;;
15230;SDS011;32569;51.762;8.564;2023-07-20T05:20:07;14.00;;;12.73;;
15230;SDS011;32569;51.762;8.564;2023-07-20T05:22:37;13.33;;;12.03;;
15230;SDS011;32569;51.762;8.564;2023-07-20T05:25:05;13.50;;;12.30;;
15230;SDS011;32569;51.762;8.564;2023-07-20T05:27:34;13.37;;;12.17;;
15230;SDS011;32569;51.762;8.564;2023-07-20T05:30:02;10.83;;;9.77;;
15230;SDS011;32569;51.762;8.564;2023-07-20T05:32:30;10.70;;;9.70;;
15230;SDS011;32569;51.762;8.564;2023-07-20T05:34:56;8.80;;;8.03;;
15230;SDS011;32569;51.762;8.564;2023-07-20T05:37:23;7.20;;;6.70;;
15230;SDS011;32569;51.762;8.564;2023-07-20T05:39:50;6.83;;;6.23;;
15230;SDS011;32569;51.762;8.564;2023-07-20T05:42:17;6.47;;;5.87;;
15230;SDS011;32569;51.762;8.564;2023-07-20T05:44:44;6.80;;;5.40;;
15230;SDS011;32569;51.762;8.564;2023-07-20T05:47:13;5.33;;;4.83;;
15230;SDS011;32569;51.762;8.564;2023-07-20T05:49:40;5.43;;;5.03;;
15230;SDS011;32569;51.762;8.564;2023-07-20T05:52:07;5.73;;;5.23;;
15230;SDS011;32569;51.762;8.564;2023-07-20T05:54:34;5.30;;;4.90;;
15230;SDS011;32569;51.762;8.564;2023-07-20T05:57:00;6.07;;;5.67;;
15230;SDS011;32569;51.762;8.564;2023-07-20T05:59:27;5.90;;;5.40;;
15230;SDS011;32569;51.762;8.564;2023-07-20T06:01:55;5.93;;;5.43;;
15230;SDS011;32569;51.762;8.564;2023-07-20T06:04:23;6.63;;;5.60;;
15230;SDS011;32569;51.762;8.564;2023-07-20T06:06:50;4.97;;;4.47;;
15230;SDS011;32569;51.762;8.564;2023-07-20T06:09:17;5.53;;;5.10;;
15230;SDS011;32569;51.762;8.564;2023-07-20T06:11:44;5.90;;;5.33;;
15230;SDS011;32569;51.762;8.564;2023-07-20T06:14:10;5.67;;;5.20;;
15230;SDS011;32569;51.762;8.564;2023-07-20T06:16:37;4.90;;;4.57;;
15230;SDS011;32569;51.762;8.564;2023-07-20T06:19:04;5.60;;;5.07;;
15230;SDS011;32569;51.762;8.564;2023-07-20T06:21:32;5.20;;;4.80;;
15230;SDS011;32569;51.762;8.564;2023-07-20T06:23:59;5.47;;;4.97;;
15230;SDS011;32569;51.762;8.564;2023-07-20T06:26:26;5.20;;;4.70;;
15230;SDS011;32569;51.762;8.564;2023-07-20T06:28:53;5.13;;;4.73;;
15230;SDS011;32569;51.762;8.564;2023-07-20T06:31:20;5.13;;;4.57;;
15230;SDS011;32569;51.762;8.564;2023-07-20T06:33:47;6.50;;;5.33;;
15230;SDS011;32569;51.762;8.564;2023-07-20T06:36:15;6.00;;;5.03;;
15230;SDS011;32569;51.762;8.564;2023-07-20T06:38:45;4.97;;;4.47;;
15230;SDS011;32569;51.762;8.564;2023-07-20T06:41:12;4.07;;;3.70;;
15230;SDS011;32569;51.762;8.564;2023-07-20T06:43:38;5.10;;;3.80;;
15230;SDS011;32569;51.762;8.564;2023-07-20T06:46:11;3.90;;;3.60;;
15230;SDS011;32569;51.762;8.564;2023-07-20T06:48:39;4.30;;;3.90;;
15230;SDS011;32569;51.762;8.564;2023-07-20T06:51:05;3.73;;;3.43;;
15230;SDS011;32569;51.762;8.564;2023-07-20T06:53:32;3.87;;;3.57;;
15230;SDS011;32569;51.762;8.564;2023-07-20T06:56:01;4.27;;;3.43;;
15230;SDS011;32569;51.762;8.564;2023-07-20T06:58:28;4.00;;;3.30;;
15230;SDS011;32569;51.762;8.564;2023-07-20T07:00:54;3.70;;;3.20;;
15230;SDS011;32569;51.762;8.564;2023-07-20T07:03:21;3.20;;;2.90;;
15230;SDS011;32569;51.762;8.564;2023-07-20T07:05:48;3.73;;;3.00;;
15230;SDS011;32569;51.762;8.564;2023-07-20T07:08:15;3.07;;;2.77;;
15230;SDS011;32569;51.762;8.564;2023-07-20T07:10:42;5.30;;;2.90;;
15230;SDS011;32569;51.762;8.564;2023-07-20T07:13:11;3.53;;;3.20;;
15230;SDS011;32569;51.762;8.564;2023-07-20T07:15:38;3.47;;;2.53;;
15230;SDS011;32569;51.762;8.564;2023-07-20T07:18:05;2.60;;;2.40;;
15230;SDS011;32569;51.762;8.564;2023-07-20T07:20:32;2.63;;;2.33;;
15230;SDS011;32569;51.762;8.564;2023-07-20T07:22:59;2.80;;;2.27;;
15230;SDS011;32569;51.762;8.564;2023-07-20T07:25:25;2.50;;;2.30;;
15230;SDS011;32569;51.762;8.564;2023-07-20T07:27:53;3.10;;;2.60;;
15230;SDS011;32569;51.762;8.564;2023-07-20T07:30:23;4.53;;;2.63;;
15230;SDS011;32569;51.762;8.564;2023-07-20T07:32:52;2.43;;;2.23;;
15230;SDS011;32569;51.762;8.564;2023-07-20T07:35:19;4.40;;;2.80;;
15230;SDS011;32569;51.762;8.564;2023-07-20T07:37:46;3.17;;;2.63;;
15230;SDS011;32569;51.762;8.564;2023-07-20T07:40:12;4.23;;;2.60;;
15230;SDS011;32569;51.762;8.564;2023-07-20T07:42:39;2.30;;;2.10;;
15230;SDS011;32569;51.762;8.564;2023-07-20T07:45:07;2.87;;;2.50;;
15230;SDS011;32569;51.762;8.564;2023-07-20T07:47:36;2.63;;;2.03;;
15230;SDS011;32569;51.762;8.564;2023-07-20T07:50:04;2.43;;;2.23;;
15230;SDS011;32569;51.762;8.564;2023-07-20T07:52:31;2.20;;;2.00;;
15230;SDS011;32569;51.762;8.564;2023-07-20T07:54:58;1.97;;;1.70;;
15230;SDS011;32569;51.762;8.564;2023-07-20T07:57:25;5.13;;;3.80;;
15230;SDS011;32569;51.762;8.564;2023-07-20T07:59:52;2.03;;;1.70;;
15230;SDS011;32569;51.762;8.564;2023-07-20T08:02:18;5.30;;;1.73;;
15230;SDS011;32569;51.762;8.564;2023-07-20T08:04:47;2.30;;;1.83;;
15230;SDS011;32569;51.762;8.564;2023-07-20T08:07:17;1.50;;;1.40;;
15230;SDS011;32569;51.762;8.564;2023-07-20T08:09:43;1.53;;;1.27;;
15230;SDS011;32569;51.762;8.564;2023-07-20T08:12:10;1.50;;;1.40;;
15230;SDS011;32569;51.762;8.564;2023-07-20T08:14:38;2.03;;;1.33;;
15230;SDS011;32569;51.762;8.564;2023-07-20T08:17:05;1.17;;;1.10;;
15230;SDS011;32569;51.762;8.564;2023-07-20T08:19:31;1.23;;;1.13;;
15230;SDS011;32569;51.762;8.564;2023-07-20T08:22:00;2.30;;;1.30;;
15230;SDS011;32569;51.762;8.564;2023-07-20T08:24:26;1.77;;;1.10;;
15230;SDS011;32569;51.762;8.564;2023-07-20T08:26:53;1.40;;;1.20;;
15230;SDS011;32569;51.762;8.564;2023-07-20T08:29:20;3.80;;;1.57;;
15230;SDS011;32569;51.762;8.564;2023-07-20T08:31:47;1.97;;;1.80;;
15230;SDS011;32569;51.762;8.564;2023-07-20T08:34:14;1.83;;;1.30;;
15230;SDS011;32569;51.762;8.564;2023-07-20T08:36:41;1.50;;;1.33;;
15230;SDS011;32569;51.762;8.564;2023-07-20T08:39:09;1.33;;;1.23;;
15230;SDS011;32569;51.762;8.564;2023-07-20T08:41:35;1.33;;;1.30;;
15230;SDS011;32569;51.762;8.564;2023-07-20T08:44:04;1.37;;;1.30;;
15230;SDS011;32569;51.762;8.564;2023-07-20T08:46:32;1.40;;;1.30;;
15230;SDS011;32569;51.762;8.564;2023-07-20T08:49:01;1.73;;;1.50;;
15230;SDS011;32569;51.762;8.564;2023-07-20T08:51:28;1.93;;;1.20;;
15230;SDS011;32569;51.762;8.564;2023-07-20T08:53:57;1.67;;;1.53;;
15230;SDS011;32569;51.762;8.564;2023-07-20T08:56:26;3.30;;;1.50;;
15230;SDS011;32569;51.762;8.564;2023-07-20T08:58:53;1.67;;;1.50;;
15230;SDS011;32569;51.762;8.564;2023-07-20T09:01:21;1.90;;;1.70;;
15230;SDS011;32569;51.762;8.564;2023-07-20T09:03:48;3.97;;;2.50;;
15230;SDS011;32569;51.762;8.564;2023-07-20T09:06:16;2.40;;;1.80;;
15230;SDS011;32569;51.762;8.564;2023-07-20T09:08:43;2.10;;;1.73;;
15230;SDS011;32569;51.762;8.564;2023-07-20T09:11:10;5.47;;;1.70;;
15230;SDS011;32569;51.762;8.564;2023-07-20T09:13:39;1.80;;;1.43;;
15230;SDS011;32569;51.762;8.564;2023-07-20T09:16:08;1.57;;;1.47;;
15230;SDS011;32569;51.762;8.564;2023-07-20T09:18:39;2.20;;;1.23;;
15230;SDS011;32569;51.762;8.564;2023-07-20T09:21:06;1.50;;;1.40;;
15230;SDS011;32569;51.762;8.564;2023-07-20T09:23:34;1.77;;;1.60;;
15230;SDS011;32569;51.762;8.564;2023-07-20T09:26:09;1.70;;;1.60;;
15230;SDS011;32569;51.762;8.564;2023-07-20T09:28:42;1.83;;;1.40;;
15230;SDS011;32569;51.762;8.564;2023-07-20T09:31:15;1.00;;;1.00;;
15230;SDS011;32569;51.762;8.564;2023-07-20T09:33:42;1.60;;;1.50;;
15230;SDS011;32569;51.762;8.564;2023-07-20T09:36:09;2.50;;;1.67;;
15230;SDS011;32569;51.762;8.564;2023-07-20T09:38:36;1.83;;;1.73;;
15230;SDS011;32569;51.762;8.564;2023-07-20T09:41:04;2.97;;;1.90;;
15230;SDS011;32569;51.762;8.564;2023-07-20T09:54:10;1.33;;;1.10;;
15230;SDS011;32569;51.762;8.564;2023-07-20T09:56:38;1.97;;;1.20;;
15230;SDS011;32569;51.762;8.564;2023-07-20T09:59:06;1.20;;;1.00;;
15230;SDS011;32569;51.762;8.564;2023-07-20T10:01:34;2.40;;;1.73;;
15230;SDS011;32569;51.762;8.564;2023-07-20T10:04:03;1.90;;;1.73;;
15230;SDS011;32569;51.762;8.564;2023-07-20T10:06:32;1.40;;;1.00;;
15230;SDS011;32569;51.762;8.564;2023-07-20T10:09:01;1.57;;;1.47;;
15230;SDS011;32569;51.762;8.564;2023-07-20T10:11:35;0.90;;;0.90;;
15230;SDS011;32569;51.762;8.564;2023-07-20T10:14:03;1.40;;;1.30;;
15230;SDS011;32569;51.762;8.564;2023-07-20T10:16:32;1.60;;;1.00;;
15230;SDS011;32569;51.762;8.564;2023-07-20T10:19:03;6.50;;;2.00;;
15230;SDS011;32569;51.762;8.564;2023-07-20T10:21:32;2.83;;;1.43;;
15230;SDS011;32569;51.762;8.564;2023-07-20T10:24:01;1.93;;;1.23;;
15230;SDS011;32569;51.762;8.564;2023-07-20T10:26:30;1.37;;;1.27;;
15230;SDS011;32569;51.762;8.564;2023-07-20T10:28:58;1.60;;;1.50;;
15230;SDS011;32569;51.762;8.564;2023-07-20T10:31:26;1.93;;;1.50;;
15230;SDS011;32569;51.762;8.564;2023-07-20T10:33:54;1.50;;;1.20;;
15230;SDS011;32569;51.762;8.564;2023-07-20T10:36:24;1.40;;;1.30;;
15230;SDS011;32569;51.762;8.564;2023-07-20T10:38:53;1.60;;;1.20;;
15230;SDS011;32569;51.762;8.564;2023-07-20T10:41:22;2.03;;;1.30;;
15230;SDS011;32569;51.762;8.564;2023-07-20T10:43:59;1.50;;;1.30;;
15230;SDS011;32569;51.762;8.564;2023-07-20T10:46:34;4.13;;;1.20;;
15230;SDS011;32569;51.762;8.564;2023-07-20T10:49:08;1.30;;;1.20;;
15230;SDS011;32569;51.762;8.564;2023-07-20T10:51:39;1.03;;;1.03;;
15230;SDS011;32569;51.762;8.564;2023-07-20T10:54:33;2.03;;;1.10;;
15230;SDS011;32569;51.762;8.564;2023-07-20T10:59:50;1.10;;;1.00;;
15230;SDS011;32569;51.762;8.564;2023-07-20T11:02:17;1.53;;;1.17;;
15230;SDS011;32569;51.762;8.564;2023-07-20T11:04:45;1.17;;;1.07;;
15230;SDS011;32569;51.762;8.564;2023-07-20T11:07:17;1.77;;;0.93;;
15230;SDS011;32569;51.762;8.564;2023-07-20T11:10:12;1.17;;;1.03;;
15230;SDS011;32569;51.762;8.564;2023-07-20T11:12:39;1.20;;;1.10;;
15230;SDS011;32569;51.762;8.564;2023-07-20T11:15:08;1.00;;;1.00;;
15230;SDS011;32569;51.762;8.564;2023-07-20T11:17:35;1.10;;;1.00;;
15230;SDS011;32569;51.762;8.564;2023-07-20T11:20:03;0.80;;;0.80;;
15230;SDS011;32569;51.762;8.564;2023-07-20T11:22:31;1.17;;;0.90;;
15230;SDS011;32569;51.762;8.564;2023-07-20T11:24:58;1.10;;;0.90;;
15230;SDS011;32569;51.762;8.564;2023-07-20T11:27:25;1.30;;;1.00;;
15230;SDS011;32569;51.762;8.564;2023-07-20T11:29:53;1.33;;;1.03;;
15230;SDS011;32569;51.762;8.564;2023-07-20T11:32:21;1.10;;;1.10;;
15230;SDS011;32569;51.762;8.564;2023-07-20T11:34:48;1.53;;;1.20;;
15230;SDS011;32569;51.762;8.564;2023-07-20T11:37:16;1.17;;;1.03;;
15230;SDS011;32569;51.762;8.564;2023-07-20T11:39:43;1.00;;;0.90;;
15230;SDS011;32569;51.762;8.564;2023-07-20T11:42:10;1.20;;;1.03;;
15230;SDS011;32569;51.762;8.564;2023-07-20T11:44:38;1.00;;;1.00;;
15230;SDS011;32569;51.762;8.564;2023-07-20T11:47:05;1.20;;;1.20;;
15230;SDS011;32569;51.762;8.564;2023-07-20T11:49:38;1.23;;;1.10;;
15230;SDS011;32569;51.762;8.564;2023-07-20T11:52:06;1.57;;;1.40;;
15230;SDS011;32569;51.762;8.564;2023-07-20T11:54:34;1.47;;;1.30;;
15230;SDS011;32569;51.762;8.564;2023-07-20T11:57:02;1.43;;;1.33;;
15230;SDS011;32569;51.762;8.564;2023-07-20T11:59:30;2.23;;;1.50;;
15230;SDS011;32569;51.762;8.564;2023-07-20T12:01:57;1.33;;;1.20;;
15230;SDS011;32569;51.762;8.564;2023-07-20T12:04:27;2.70;;;1.47;;
15230;SDS011;32569;51.762;8.564;2023-07-20T12:06:56;1.47;;;1.37;;
15230;SDS011;32569;51.762;8.564;2023-07-20T12:09:23;2.10;;;2.00;;
15230;SDS011;32569;51.762;8.564;2023-07-20T12:11:50;2.30;;;2.10;;
15230;SDS011;32569;51.762;8.564;2023-07-20T12:14:16;2.10;;;2.00;;
15230;SDS011;32569;51.762;8.564;2023-07-20T12:16:43;2.33;;;2.23;;
15230;SDS011;32569;51.762;8.564;2023-07-20T12:19:18;2.27;;;2.17;;
15230;SDS011;32569;51.762;8.564;2023-07-20T12:21:44;2.23;;;2.00;;
15230;SDS011;32569;51.762;8.564;2023-07-20T12:24:12;2.83;;;2.43;;
15230;SDS011;32569;51.762;8.564;2023-07-20T12:26:39;2.83;;;2.63;;
15230;SDS011;32569;51.762;8.564;2023-07-20T12:29:06;2.60;;;2.50;;
15230;SDS011;32569;51.762;8.564;2023-07-20T12:31:33;2.83;;;2.60;;
15230;SDS011;32569;51.762;8.564;2023-07-20T12:34:02;2.93;;;2.60;;
15230;SDS011;32569;51.762;8.564;2023-07-20T12:36:29;2.60;;;2.40;;
15230;SDS011;32569;51.762;8.564;2023-07-20T12:38:56;2.30;;;2.10;;
15230;SDS011;32569;51.762;8.564;2023-07-20T12:41:25;2.13;;;2.03;;
15230;SDS011;32569;51.762;8.564;2023-07-20T12:43:52;2.43;;;2.20;;
15230;SDS011;32569;51.762;8.564;2023-07-20T12:46:24;2.37;;;2.17;;
15230;SDS011;32569;51.762;8.564;2023-07-20T12:48:50;2.20;;;2.10;;
15230;SDS011;32569;51.762;8.564;2023-07-20T12:51:18;2.40;;;2.20;;
15230;SDS011;32569;51.762;8.564;2023-07-20T12:53:45;3.47;;;2.00;;
15230;SDS011;32569;51.762;8.564;2023-07-20T12:56:12;2.17;;;2.07;;
15230;SDS011;32569;51.762;8.564;2023-07-20T12:58:40;2.00;;;1.80;;
15230;SDS011;32569;51.762;8.564;2023-07-20T13:01:06;3.57;;;1.83;;
15230;SDS011;32569;51.762;8.564;2023-07-20T13:03:36;2.70;;;2.00;;
15230;SDS011;32569;51.762;8.564;2023-07-20T13:06:03;1.57;;;1.47;;
15230;SDS011;32569;51.762;8.564;2023-07-20T13:08:30;1.60;;;1.50;;
15230;SDS011;32569;51.762;8.564;2023-07-20T13:10:57;1.53;;;1.53;;
15230;SDS011;32569;51.762;8.564;2023-07-20T13:13:25;2.60;;;1.83;;
15230;SDS011;32569;51.762;8.564;2023-07-20T13:15:54;2.20;;;1.80;;
15230;SDS011;32569;51.762;8.564;2023-07-20T13:18:21;1.90;;;1.67;;
15230;SDS011;32569;51.762;8.564;2023-07-20T13:20:48;1.17;;;1.07;;
15230;SDS011;32569;51.762;8.564;2023-07-20T13:23:14;2.20;;;1.00;;
15230;SDS011;32569;51.762;8.564;2023-07-20T13:25:41;1.27;;;1.10;;
15230;SDS011;32569;51.762;8.564;2023-07-20T13:28:08;1.27;;;1.10;;
15230;SDS011;32569;51.762;8.564;2023-07-20T13:30:35;3.60;;;1.53;;
15230;SDS011;32569;51.762;8.564;2023-07-20T13:33:03;1.20;;;1.10;;
15230;SDS011;32569;51.762;8.564;2023-07-20T13:35:30;1.47;;;1.20;;
15230;SDS011;32569;51.762;8.564;2023-07-20T13:37:56;1.37;;;1.17;;
15230;SDS011;32569;51.762;8.564;2023-07-20T13:40:23;1.10;;;0.93;;
15230;SDS011;32569;51.762;8.564;2023-07-20T13:42:50;1.10;;;0.70;;
15230;SDS011;32569;51.762;8.564;2023-07-20T13:45:16;1.73;;;0.90;;
15230;SDS011;32569;51.762;8.564;2023-07-20T13:47:43;1.07;;;0.90;;
15230;SDS011;32569;51.762;8.564;2023-07-20T13:50:11;1.00;;;0.90;;
15230;SDS011;32569;51.762;8.564;2023-07-20T13:52:38;0.90;;;0.90;;
15230;SDS011;32569;51.762;8.564;2023-07-20T13:55:05;0.80;;;0.80;;
15230;SDS011;32569;51.762;8.564;2023-07-20T13:57:32;1.07;;;1.00;;
15230;SDS011;32569;51.762;8.564;2023-07-20T13:59:58;0.90;;;0.90;;
15230;SDS011;32569;51.762;8.564;2023-07-20T14:02:30;1.10;;;0.70;;
15230;SDS011;32569;51.762;8.564;2023-07-20T14:04:56;1.20;;;0.90;;
15230;SDS011;32569;51.762;8.564;2023-07-20T14:07:24;1.00;;;0.80;;
15230;SDS011;32569;51.762;8.564;2023-07-20T14:09:51;5.60;;;1.90;;
15230;SDS011;32569;51.762;8.564;2023-07-20T14:12:18;1.13;;;0.77;;
15230;SDS011;32569;51.762;8.564;2023-07-20T14:14:45;0.97;;;0.90;;
15230;SDS011;32569;51.762;8.564;2023-07-20T14:17:11;1.70;;;1.00;;
15230;SDS011;32569;51.762;8.564;2023-07-20T14:19:38;1.43;;;1.10;;
15230;SDS011;32569;51.762;8.564;2023-07-20T14:22:05;1.17;;;0.80;;
15230;SDS011;32569;51.762;8.564;2023-07-20T14:24:33;1.00;;;1.00;;
15230;SDS011;32569;51.762;8.564;2023-07-20T14:27:00;0.70;;;0.70;;
15230;SDS011;32569;51.762;8.564;2023-07-20T14:29:27;1.13;;;0.80;;
15230;SDS011;32569;51.762;8.564;2023-07-20T14:31:56;1.07;;;0.77;;
15230;SDS011;32569;51.762;8.564;2023-07-20T14:34:23;1.13;;;0.90;;
15230;SDS011;32569;51.762;8.564;2023-07-20T14:36:50;0.73;;;0.67;;
15230;SDS011;32569;51.762;8.564;2023-07-20T14:39:17;1.20;;;1.00;;
15230;SDS011;32569;51.762;8.564;2023-07-20T14:41:46;2.43;;;0.80;;
15230;SDS011;32569;51.762;8.564;2023-07-20T14:44:12;0.83;;;0.83;;
15230;SDS011;32569;51.762;8.564;2023-07-20T14:46:40;1.30;;;0.80;;
15230;SDS011;32569;51.762;8.564;2023-07-20T14:49:07;0.70;;;0.70;;
15230;SDS011;32569;51.762;8.564;2023-07-20T14:51:34;1.00;;;0.63;;
15230;SDS011;32569;51.762;8.564;2023-07-20T14:54:07;1.23;;;0.80;;
15230;SDS011;32569;51.762;8.564;2023-07-20T14:56:34;1.13;;;0.60;;
15230;SDS011;32569;51.762;8.564;2023-07-20T14:59:04;0.60;;;0.60;;
15230;SDS011;32569;51.762;8.564;2023-07-20T15:01:31;1.10;;;0.67;;
15230;SDS011;32569;51.762;8.564;2023-07-20T15:03:57;2.53;;;0.80;;